Terminal Aerodrome Forecast
Issued by NWS

Home | Current Version | Previous Version | Text Only | Print | Product List | Glossary On
Versions: 1 2 3 4 5 6 7 8 9 10 11 12 13 14 15 16 17 18 19 20
000
FTUS43 KTOP 251731
TAFMHK
TAF
KMHK 251731Z 2518/2618 36010KT P6SM VCSH OVC009
     FM260400 35005KT 5SM BR OVC005
     FM261000 33003KT 3SM BR OVC003
     FM261500 VRB03KT P6SM OVC011=

USA.gov is the U.S. government's official web portal to all federal, state and local government web resources and services.